Time;durP1;ratioP1;P1;durP2;ratioP2;P2;SDS_P1;SDS_P2;PMS_P1;PMS_P2;Temp;Humidity;BMP_temperature;BMP_pressure;BME280_temperature;BME280_humidity;BME280_pressure;Samples;Min_cycle;Max_cycle;Signal;HPM_P1;HPM_P2
2022/03/19 00:01:54;;;;;;;2.97;1.87;;;7.90;99.90;;;;;;5048034;28;20173;-85
2022/03/19 00:04:21;;;;;;;3.57;2.10;;;7.90;99.90;;;;;;5052122;28;20208;-80
2022/03/19 00:06:50;;;;;;;3.10;2.00;;;7.80;99.90;;;;;;5043133;28;20273;-80
2022/03/19 00:09:18;;;;;;;3.87;2.07;;;7.80;99.90;;;;;;5054593;28;20188;-87
2022/03/19 00:11:44;;;;;;;3.13;1.70;;;7.70;99.90;;;;;;5070423;28;20178;-81
2022/03/19 00:14:12;;;;;;;2.70;2.00;;;7.70;99.90;;;;;;5056867;28;20198;-87
2022/03/19 00:16:38;;;;;;;2.40;1.90;;;7.60;99.90;;;;;;5047954;28;20182;-85
2022/03/19 00:19:05;;;;;;;2.47;1.80;;;7.60;99.90;;;;;;5044246;28;20201;-86
2022/03/19 00:21:34;;;;;;;2.60;1.90;;;7.60;99.90;;;;;;5039520;28;20183;-87
2022/03/19 00:24:01;;;;;;;3.17;2.10;;;7.50;99.90;;;;;;5050314;28;20272;-82
2022/03/19 00:26:27;;;;;;;6.20;1.83;;;7.50;99.90;;;;;;5043505;28;20181;-82
2022/03/19 00:28:52;;;;;;;3.77;2.20;;;7.40;99.90;;;;;;5054245;28;20185;-86
2022/03/19 00:31:18;;;;;;;3.03;2.27;;;7.40;99.90;;;;;;5051010;28;20188;-74
2022/03/19 00:33:44;;;;;;;2.77;1.90;;;7.40;99.90;;;;;;5048486;28;20201;-87
2022/03/19 00:36:09;;;;;;;3.33;2.10;;;7.30;99.90;;;;;;5051480;28;20192;-86
2022/03/19 00:38:37;;;;;;;2.57;1.90;;;7.30;99.90;;;;;;5034114;28;20170;-85
2022/03/19 00:41:03;;;;;;;3.17;2.00;;;7.30;99.90;;;;;;5049935;28;20183;-84
2022/03/19 00:43:32;;;;;;;2.70;1.77;;;7.30;99.90;;;;;;5037353;28;20185;-85
2022/03/19 00:45:58;;;;;;;2.97;1.77;;;7.30;99.90;;;;;;5053639;28;20231;-86
2022/03/19 00:48:23;;;;;;;4.37;2.20;;;7.20;99.90;;;;;;5038247;28;20177;-86
2022/03/19 00:50:51;;;;;;;3.77;1.80;;;7.20;99.90;;;;;;5049123;28;20177;-86
2022/03/19 00:53:19;;;;;;;3.23;2.30;;;7.20;99.90;;;;;;5053489;28;20288;-83
2022/03/19 00:55:45;;;;;;;4.07;2.17;;;7.20;99.90;;;;;;5046554;28;20188;-85
2022/03/19 00:58:14;;;;;;;3.57;2.30;;;7.10;99.90;;;;;;5052247;28;20193;-85
2022/03/19 01:00:39;;;;;;;3.33;2.10;;;7.10;99.90;;;;;;5051365;28;20231;-86
2022/03/19 01:03:07;;;;;;;3.37;1.97;;;7.00;99.90;;;;;;5048505;28;20178;-83
2022/03/19 01:05:33;;;;;;;3.70;2.07;;;7.00;99.90;;;;;;5068592;28;20215;-85
2022/03/19 01:07:59;;;;;;;2.53;1.93;;;7.00;99.90;;;;;;5055643;28;20245;-83
2022/03/19 01:10:28;;;;;;;3.20;2.10;;;7.00;99.90;;;;;;5055606;28;20203;-86
2022/03/19 01:12:55;;;;;;;3.40;1.80;;;7.00;99.90;;;;;;5055162;28;20233;-85
2022/03/19 01:15:22;;;;;;;3.87;2.17;;;6.90;99.90;;;;;;5056267;28;20216;-82
2022/03/19 01:17:48;;;;;;;3.20;2.10;;;6.90;99.90;;;;;;5053233;28;20209;-86
2022/03/19 01:20:15;;;;;;;3.57;2.10;;;6.90;99.90;;;;;;5048687;28;20231;-86
2022/03/19 01:22:45;;;;;;;4.13;2.13;;;6.90;99.90;;;;;;5051874;28;20165;-80
2022/03/19 01:25:12;;;;;;;2.50;1.97;;;6.90;99.90;;;;;;5062216;28;20178;-81
2022/03/19 01:27:41;;;;;;;2.90;2.13;;;6.90;99.90;;;;;;5048278;28;20240;-87
2022/03/19 01:30:16;;;;;;;4.77;2.10;;;6.80;99.90;;;;;;5048618;28;20181;-87
2022/03/19 01:32:43;;;;;;;3.63;2.00;;;6.80;99.90;;;;;;5054073;28;20211;-85
2022/03/19 01:35:12;;;;;;;3.77;2.30;;;6.80;99.90;;;;;;5053066;28;20223;-74
2022/03/19 01:37:39;;;;;;;2.73;1.73;;;6.70;99.90;;;;;;5068323;28;20177;-83
2022/03/19 01:40:09;;;;;;;2.50;1.70;;;6.70;99.90;;;;;;5045760;28;20170;-87
2022/03/19 01:42:42;;;;;;;3.27;1.90;;;6.70;99.90;;;;;;5048753;28;20215;-86
2022/03/19 01:45:17;;;;;;;3.47;1.80;;;6.60;99.90;;;;;;5053442;28;20182;-86
2022/03/19 01:47:48;;;;;;;2.83;1.80;;;6.60;99.90;;;;;;5040938;28;20213;-71
2022/03/19 01:50:18;;;;;;;3.57;2.10;;;6.60;99.90;;;;;;5047193;28;20216;-72
2022/03/19 01:52:45;;;;;;;2.57;1.77;;;6.60;99.90;;;;;;5048928;28;20501;-72
2022/03/19 01:55:14;;;;;;;2.33;1.83;;;6.50;99.90;;;;;;5028939;28;20202;-71
2022/03/19 01:57:44;;;;;;;3.20;1.80;;;6.50;99.90;;;;;;5046353;28;20208;-72
2022/03/19 02:00:16;;;;;;;3.77;2.03;;;6.50;99.90;;;;;;5058954;28;20208;-70
2022/03/19 02:02:44;;;;;;;3.00;2.10;;;6.50;99.90;;;;;;5046929;28;20411;-70
2022/03/19 02:05:14;;;;;;;2.83;2.03;;;6.40;99.90;;;;;;5042594;28;20204;-70
2022/03/19 02:07:43;;;;;;;3.97;2.27;;;6.40;99.90;;;;;;5051481;28;20220;-70
2022/03/19 02:10:13;;;;;;;4.00;2.13;;;6.40;99.90;;;;;;5048278;28;20198;-68
2022/03/19 02:12:44;;;;;;;3.60;2.07;;;6.40;99.90;;;;;;5045137;28;20188;-70
2022/03/19 02:15:16;;;;;;;3.43;1.90;;;6.30;99.90;;;;;;5061509;28;20216;-71
2022/03/19 02:17:42;;;;;;;2.80;1.73;;;6.30;99.90;;;;;;5047145;28;20174;-71
2022/03/19 02:20:11;;;;;;;2.70;1.83;;;6.30;99.90;;;;;;5039161;28;20231;-71
2022/03/19 02:22:37;;;;;;;3.07;2.00;;;6.20;99.90;;;;;;5051102;28;20205;-72
2022/03/19 02:27:52;;;;;;;2.07;1.60;;;6.20;99.90;;;;;;5050337;28;20227;-70
2022/03/19 02:30:18;;;;;;;3.30;1.90;;;6.20;99.90;;;;;;5051516;28;20197;-71
2022/03/19 02:32:47;;;;;;;2.60;1.80;;;6.10;99.90;;;;;;5046534;28;20207;-71
2022/03/19 02:35:13;;;;;;;2.37;1.80;;;6.10;99.90;;;;;;5053864;28;20201;-71
2022/03/19 02:37:43;;;;;;;3.33;1.97;;;6.10;99.90;;;;;;5050739;28;20201;-71
2022/03/19 02:40:12;;;;;;;3.70;2.07;;;6.00;99.90;;;;;;5069617;28;20170;-70
2022/03/19 02:42:41;;;;;;;3.03;2.10;;;6.00;99.90;;;;;;5055220;28;20174;-70
2022/03/19 02:45:07;;;;;;;2.37;2.00;;;6.00;99.90;;;;;;5065871;28;20189;-72
2022/03/19 02:47:33;;;;;;;4.13;2.13;;;5.90;99.90;;;;;;5050939;28;20181;-72
2022/03/19 02:50:00;;;;;;;3.90;2.10;;;5.90;99.90;;;;;;5052428;28;20213;-70
2022/03/19 02:52:26;;;;;;;2.70;2.00;;;5.90;99.90;;;;;;5051755;28;20203;-72
2022/03/19 02:54:54;;;;;;;2.53;1.63;;;5.90;99.90;;;;;;5053914;28;20203;-71
2022/03/19 02:57:19;;;;;;;4.17;2.20;;;5.90;99.90;;;;;;5064765;28;20276;-72
2022/03/19 02:59:47;;;;;;;2.87;2.00;;;5.90;99.90;;;;;;5054012;28;20276;-69
2022/03/19 03:02:13;;;;;;;2.70;1.83;;;5.90;99.90;;;;;;5052361;28;20182;-72
2022/03/19 03:04:41;;;;;;;3.70;2.10;;;5.80;99.90;;;;;;5050237;28;20203;-71
2022/03/19 03:07:09;;;;;;;3.57;2.00;;;5.80;99.90;;;;;;5044385;28;20174;-70
2022/03/19 03:09:34;;;;;;;2.43;1.90;;;5.80;99.90;;;;;;5053305;28;20204;-72
2022/03/19 03:12:03;;;;;;;2.90;1.90;;;5.80;99.90;;;;;;5043617;28;20220;-71
2022/03/19 03:14:33;;;;;;;2.60;1.90;;;5.80;99.90;;;;;;5070713;28;20190;-72
2022/03/19 03:17:02;;;;;;;3.93;2.20;;;5.80;99.90;;;;;;5051007;28;20208;-72
2022/03/19 03:19:31;;;;;;;3.07;2.10;;;5.70;99.90;;;;;;5049058;28;20227;-72
2022/03/19 03:21:57;;;;;;;5.00;2.20;;;5.70;99.90;;;;;;5047960;28;20181;-72
2022/03/19 03:24:22;;;;;;;3.20;2.30;;;5.70;99.90;;;;;;5049696;28;20205;-70
2022/03/19 03:26:48;;;;;;;2.57;1.80;;;5.60;99.90;;;;;;5049598;28;20176;-71
2022/03/19 03:29:17;;;;;;;3.70;2.03;;;5.60;99.90;;;;;;5053579;28;20234;-72
2022/03/19 03:31:45;;;;;;;2.37;1.67;;;5.60;99.90;;;;;;5041583;28;20399;-70
2022/03/19 03:34:10;;;;;;;4.00;1.80;;;5.60;99.90;;;;;;5035350;28;20194;-72
2022/03/19 03:36:38;;;;;;;3.83;2.20;;;5.50;99.90;;;;;;5052801;28;20303;-71
2022/03/19 03:39:06;;;;;;;3.13;2.13;;;5.50;99.90;;;;;;5040365;28;20193;-72
2022/03/19 03:41:32;;;;;;;2.83;1.97;;;5.50;99.90;;;;;;5035468;28;20170;-71
2022/03/19 03:43:58;;;;;;;4.10;2.20;;;5.50;99.90;;;;;;5050809;28;20311;-73
2022/03/19 03:46:25;;;;;;;2.50;1.87;;;5.50;99.90;;;;;;5052664;28;20216;-71
2022/03/19 03:48:51;;;;;;;3.10;2.10;;;5.50;99.90;;;;;;5049900;28;20198;-72
2022/03/19 03:51:19;;;;;;;3.23;1.90;;;5.50;99.90;;;;;;5052481;28;20185;-72
2022/03/19 03:53:47;;;;;;;2.43;1.80;;;5.40;99.90;;;;;;5044719;28;20205;-71
2022/03/19 03:56:13;;;;;;;4.40;2.40;;;5.40;99.90;;;;;;5050267;28;20178;-69
2022/03/19 03:58:45;;;;;;;4.27;2.30;;;5.40;99.90;;;;;;5053084;28;20312;-70
2022/03/19 04:01:13;;;;;;;3.27;2.00;;;5.40;99.90;;;;;;5047334;28;20203;-68
2022/03/19 04:03:39;;;;;;;2.70;2.00;;;5.40;99.90;;;;;;5053556;28;20219;-72
2022/03/19 04:06:05;;;;;;;3.33;2.00;;;5.30;99.90;;;;;;5045383;28;20194;-71
2022/03/19 04:08:35;;;;;;;2.97;2.10;;;5.30;99.90;;;;;;5067640;28;20260;-68
2022/03/19 04:11:04;;;;;;;4.67;2.20;;;5.30;99.90;;;;;;5050385;28;20181;-71
2022/03/19 04:13:29;;;;;;;3.10;2.13;;;5.30;99.90;;;;;;5052151;28;20198;-71
2022/03/19 04:15:55;;;;;;;3.47;2.00;;;5.30;99.90;;;;;;5063281;28;20318;-71
2022/03/19 04:18:21;;;;;;;3.60;1.97;;;5.20;99.90;;;;;;5053640;28;20180;-71
2022/03/19 04:20:46;;;;;;;2.67;1.80;;;5.20;99.90;;;;;;5065610;28;20286;-72
2022/03/19 04:23:15;;;;;;;5.00;2.00;;;5.20;99.90;;;;;;5052437;28;20197;-71
2022/03/19 04:25:41;;;;;;;2.30;1.57;;;5.20;99.90;;;;;;5046333;28;20259;-71
2022/03/19 04:28:07;;;;;;;3.07;1.90;;;5.20;99.90;;;;;;5051201;28;20255;-72
2022/03/19 04:30:32;;;;;;;3.50;2.13;;;5.20;99.90;;;;;;5054633;28;20189;-71
2022/03/19 04:33:04;;;;;;;3.87;2.20;;;5.10;99.90;;;;;;5050022;28;20180;-71
2022/03/19 04:38:19;;;;;;;3.33;2.07;;;5.10;99.90;;;;;;5048802;28;20181;-72
2022/03/19 04:40:48;;;;;;;3.07;1.90;;;5.10;99.90;;;;;;5049558;28;20202;-72
2022/03/19 04:43:14;;;;;;;2.30;1.90;;;5.00;99.90;;;;;;5068019;28;20177;-72
2022/03/19 04:45:41;;;;;;;3.77;2.00;;;5.00;99.90;;;;;;5041233;28;20173;-73
2022/03/19 04:48:08;;;;;;;2.73;1.83;;;5.00;99.90;;;;;;5041046;28;20266;-72
2022/03/19 04:50:41;;;;;;;2.80;1.87;;;5.00;99.90;;;;;;5042447;28;20220;-74
2022/03/19 04:53:08;;;;;;;2.27;1.90;;;4.90;99.90;;;;;;5054671;28;20178;-72
2022/03/19 04:55:38;;;;;;;5.17;2.13;;;4.90;99.90;;;;;;5057660;28;20213;-71
2022/03/19 04:58:08;;;;;;;3.40;1.77;;;4.90;99.90;;;;;;5069061;28;20208;-73
2022/03/19 05:00:38;;;;;;;5.93;2.20;;;4.90;99.90;;;;;;5049681;28;20204;-71
2022/03/19 05:03:12;;;;;;;3.63;1.80;;;4.90;99.90;;;;;;5054329;28;20201;-71
2022/03/19 05:05:38;;;;;;;3.63;1.80;;;4.80;99.90;;;;;;5042828;28;20209;-72
2022/03/19 05:08:07;;;;;;;2.93;2.07;;;4.80;99.90;;;;;;5056317;28;20224;-72
2022/03/19 05:13:21;;;;;;;6.00;2.80;;;4.80;99.90;;;;;;5049009;28;20207;-71
2022/03/19 05:15:47;;;;;;;3.70;2.57;;;4.70;99.90;;;;;;5054311;28;20201;-71
2022/03/19 05:18:13;;;;;;;5.90;2.87;;;4.70;99.90;;;;;;5048926;28;20277;-72
2022/03/19 05:20:38;;;;;;;3.37;2.00;;;4.70;99.90;;;;;;5044096;28;20428;-72
2022/03/19 05:23:07;;;;;;;9.90;6.97;;;4.60;99.90;;;;;;5054009;28;20205;-71
2022/03/19 05:25:33;;;;;;;6.70;4.67;;;4.60;99.90;;;;;;5057686;28;20296;-71
2022/03/19 05:28:01;;;;;;;5.60;3.70;;;4.60;99.90;;;;;;5049589;28;20449;-71
2022/03/19 05:30:27;;;;;;;3.50;2.50;;;4.60;99.90;;;;;;5055511;28;20254;-72
2022/03/19 05:32:55;;;;;;;3.10;2.53;;;4.60;99.90;;;;;;5052332;28;20197;-71
2022/03/19 05:35:24;;;;;;;4.53;2.50;;;4.60;99.90;;;;;;5054505;28;20209;-72
2022/03/19 05:37:50;;;;;;;4.97;2.40;;;4.60;99.90;;;;;;5053856;28;20201;-71
2022/03/19 05:40:17;;;;;;;4.90;2.50;;;4.60;99.90;;;;;;5051090;28;20717;-72
2022/03/19 05:42:43;;;;;;;4.20;2.20;;;4.60;99.90;;;;;;5048420;28;20188;-72
2022/03/19 05:45:10;;;;;;;3.87;2.50;;;4.60;99.90;;;;;;5048974;28;20190;-71
2022/03/19 05:47:42;;;;;;;4.93;2.93;;;4.60;99.90;;;;;;5063770;28;20170;-72
2022/03/19 05:50:11;;;;;;;4.87;3.50;;;4.60;99.90;;;;;;5058838;28;20174;-73
2022/03/19 05:52:37;;;;;;;3.43;2.30;;;4.50;99.90;;;;;;5041317;28;20178;-71
2022/03/19 05:55:08;;;;;;;4.77;2.73;;;4.50;99.90;;;;;;5053960;28;20194;-73
2022/03/19 05:57:36;;;;;;;3.00;2.30;;;4.50;99.90;;;;;;5057509;28;20265;-73
2022/03/19 06:00:06;;;;;;;3.83;2.40;;;4.50;99.90;;;;;;5054465;28;20181;-73
2022/03/19 06:02:34;;;;;;;2.90;2.10;;;4.60;99.90;;;;;;5052164;28;20237;-71
2022/03/19 06:05:02;;;;;;;3.17;2.30;;;4.60;99.90;;;;;;5044489;28;20495;-73
2022/03/19 06:07:27;;;;;;;3.80;2.30;;;4.60;99.90;;;;;;5046385;28;20182;-72
2022/03/19 06:09:54;;;;;;;4.17;2.50;;;4.60;99.90;;;;;;5040424;28;20189;-72
2022/03/19 06:12:22;;;;;;;3.37;2.27;;;4.70;99.90;;;;;;5044065;28;20279;-72
2022/03/19 06:14:53;;;;;;;3.57;2.13;;;4.70;99.90;;;;;;5053108;28;20197;-72
2022/03/19 06:17:24;;;;;;;4.10;2.27;;;4.70;99.90;;;;;;5051481;28;20252;-71
2022/03/19 06:19:49;;;;;;;3.17;2.30;;;4.70;99.90;;;;;;5050144;28;20285;-72
2022/03/19 06:22:17;;;;;;;10.57;5.70;;;4.70;99.90;;;;;;5048868;28;20256;-71
2022/03/19 06:24:45;;;;;;;7.90;4.70;;;4.80;99.90;;;;;;5046864;28;20206;-71
2022/03/19 06:27:13;;;;;;;7.40;3.60;;;4.80;99.90;;;;;;5047208;28;20178;-72
2022/03/19 06:29:39;;;;;;;4.87;3.10;;;4.80;99.90;;;;;;5077355;28;20196;-72
2022/03/19 06:32:05;;;;;;;4.43;2.80;;;4.80;99.90;;;;;;5055032;28;20181;-72
2022/03/19 06:34:32;;;;;;;3.90;2.53;;;4.90;99.90;;;;;;5049865;28;20203;-72
2022/03/19 06:39:42;;;;;;;6.07;2.10;;;4.90;99.90;;;;;;5036314;28;20204;-71
2022/03/19 06:42:08;;;;;;;4.07;2.20;;;4.90;99.90;;;;;;5052926;28;20169;-72
2022/03/19 06:44:35;;;;;;;2.87;1.93;;;5.00;99.90;;;;;;5049760;28;20190;-72
2022/03/19 06:47:00;;;;;;;4.20;2.23;;;5.00;99.90;;;;;;5050372;28;20438;-71
2022/03/19 06:49:28;;;;;;;2.67;2.13;;;5.10;99.90;;;;;;5048558;28;20173;-71
2022/03/19 06:51:56;;;;;;;4.53;2.40;;;5.10;99.90;;;;;;5050190;28;20182;-69
2022/03/19 06:54:22;;;;;;;3.47;2.30;;;5.20;99.90;;;;;;5051775;28;20197;-72
2022/03/19 06:56:52;;;;;;;4.73;2.50;;;5.20;99.90;;;;;;5050911;28;20227;-72
2022/03/19 06:59:22;;;;;;;23.47;7.13;;;5.20;99.90;;;;;;5040139;28;20202;-70
2022/03/19 07:01:51;;;;;;;16.80;6.40;;;5.30;99.90;;;;;;5051341;28;20170;-71
2022/03/19 07:04:16;;;;;;;12.37;5.47;;;5.30;99.90;;;;;;5046596;28;20264;-72
2022/03/19 07:06:45;;;;;;;6.67;4.07;;;5.40;99.90;;;;;;5066102;28;20347;-72
2022/03/19 07:09:12;;;;;;;5.80;2.90;;;5.50;99.90;;;;;;5062771;28;20238;-69
2022/03/19 07:11:38;;;;;;;6.20;3.03;;;5.60;99.90;;;;;;5041710;28;20197;-70
2022/03/19 07:14:05;;;;;;;5.17;3.00;;;5.60;99.90;;;;;;5064465;28;20197;-72
2022/03/19 07:16:33;;;;;;;4.20;2.70;;;5.70;99.90;;;;;;5052877;28;20177;-72
2022/03/19 07:18:59;;;;;;;3.83;2.33;;;5.80;99.90;;;;;;5044826;28;20208;-71
2022/03/19 07:21:25;;;;;;;3.40;2.47;;;5.80;99.90;;;;;;5044295;28;20261;-71
2022/03/19 07:23:50;;;;;;;4.83;2.40;;;5.90;99.90;;;;;;5050516;28;20177;-70
2022/03/19 07:26:18;;;;;;;4.30;2.50;;;6.00;99.90;;;;;;5046073;28;20212;-71
2022/03/19 07:28:44;;;;;;;3.70;2.40;;;6.10;99.90;;;;;;5041689;28;20272;-72
2022/03/19 07:31:12;;;;;;;3.07;2.30;;;6.10;99.90;;;;;;5054158;28;20280;-72
2022/03/19 07:33:38;;;;;;;3.93;2.50;;;6.20;99.90;;;;;;5054998;28;20173;-72
2022/03/19 07:36:04;;;;;;;2.93;2.27;;;6.30;99.90;;;;;;5054725;28;20246;-72
2022/03/19 07:38:32;;;;;;;4.90;2.80;;;6.40;99.90;;;;;;5054354;28;20177;-72
2022/03/19 07:43:46;;;;;;;3.73;2.57;;;6.60;99.90;;;;;;5036259;28;20188;-72
2022/03/19 07:46:12;;;;;;;2.67;2.13;;;6.70;99.90;;;;;;5052945;28;20201;-72
2022/03/19 07:48:38;;;;;;;3.97;2.40;;;6.80;99.90;;;;;;5045882;28;20200;-72
2022/03/19 07:51:04;;;;;;;4.13;2.70;;;6.90;99.90;;;;;;5047864;28;20173;-72
2022/03/19 07:53:29;;;;;;;3.63;2.50;;;7.00;99.90;;;;;;5049986;28;20181;-72
2022/03/19 07:56:00;;;;;;;3.50;2.47;;;7.10;99.90;;;;;;5046686;28;20170;-68
2022/03/19 07:58:26;;;;;;;5.33;2.70;;;7.20;99.90;;;;;;5045839;28;20242;-71
2022/03/19 08:00:55;;;;;;;3.93;2.60;;;7.30;99.90;;;;;;5043878;28;20177;-73
2022/03/19 08:03:21;;;;;;;4.07;2.47;;;7.40;99.90;;;;;;5049920;28;20184;-71
2022/03/19 08:05:49;;;;;;;2.73;2.30;;;7.60;99.90;;;;;;5050679;28;20196;-73
2022/03/19 08:08:15;;;;;;;5.07;2.17;;;7.70;99.90;;;;;;5060658;28;20188;-72
2022/03/19 08:10:45;;;;;;;7.13;5.17;;;7.80;99.90;;;;;;5047790;28;20178;-80
2022/03/19 08:13:13;;;;;;;5.73;3.60;;;7.90;99.90;;;;;;5064396;28;20295;-76
2022/03/19 08:15:42;;;;;;;5.47;3.10;;;8.00;99.90;;;;;;5047241;28;20209;-77
2022/03/19 08:18:11;;;;;;;5.23;2.73;;;8.10;99.90;;;;;;5056490;28;20260;-76
2022/03/19 08:20:40;;;;;;;4.37;2.73;;;8.20;99.90;;;;;;5068852;28;20176;-76
2022/03/19 08:23:06;;;;;;;3.67;2.53;;;8.30;99.90;;;;;;5056241;28;20185;-77
2022/03/19 08:25:34;;;;;;;4.73;2.80;;;8.50;99.90;;;;;;5051821;28;20219;-72
2022/03/19 08:28:02;;;;;;;2.97;2.10;;;8.60;99.90;;;;;;5042391;28;20192;-73
2022/03/19 08:30:30;;;;;;;3.97;2.30;;;8.70;99.90;;;;;;5057733;28;20177;-72
2022/03/19 08:32:55;;;;;;;3.67;2.30;;;8.90;99.90;;;;;;5057793;28;20201;-72
2022/03/19 08:35:21;;;;;;;3.17;2.10;;;9.00;99.90;;;;;;5047879;28;20228;-74
2022/03/19 08:37:47;;;;;;;4.43;2.50;;;9.10;99.90;;;;;;5054208;28;20174;-74
2022/03/19 08:40:21;;;;;;;6.50;3.43;;;9.20;99.90;;;;;;5054468;28;20202;-71
2022/03/19 08:42:52;;;;;;;3.43;2.67;;;9.30;99.90;;;;;;5074308;28;20184;-74
2022/03/19 08:45:21;;;;;;;5.23;2.57;;;9.50;99.90;;;;;;5057437;28;20241;-73
2022/03/19 08:47:49;;;;;;;2.83;2.13;;;9.60;99.90;;;;;;5057717;28;20177;-73
2022/03/19 08:50:17;;;;;;;2.73;2.10;;;9.70;99.90;;;;;;5057247;28;20185;-73
2022/03/19 08:52:43;;;;;;;3.67;2.57;;;9.80;99.90;;;;;;5050703;28;20212;-73
2022/03/19 08:55:09;;;;;;;4.53;2.60;;;9.90;99.90;;;;;;5058390;28;20193;-71
2022/03/19 08:57:35;;;;;;;4.17;2.30;;;10.00;99.90;;;;;;5057402;28;20181;-72
2022/03/19 09:00:01;;;;;;;4.70;2.70;;;10.10;99.90;;;;;;5057514;28;20222;-73
2022/03/19 09:02:29;;;;;;;4.97;2.53;;;10.20;99.90;;;;;;5057442;28;20169;-71
2022/03/19 09:04:57;;;;;;;3.90;2.30;;;10.40;99.90;;;;;;5069588;28;20200;-73
2022/03/19 09:07:27;;;;;;;4.50;2.50;;;10.50;99.90;;;;;;5078334;28;20270;-74
2022/03/19 09:09:53;;;;;;;3.70;2.60;;;10.70;99.90;;;;;;5056428;28;20200;-73
2022/03/19 09:12:21;;;;;;;4.30;2.53;;;10.90;99.90;;;;;;5037246;28;20207;-73
2022/03/19 09:14:47;;;;;;;4.82;2.60;;;11.00;99.90;;;;;;5045365;28;20204;-74
2022/03/19 09:17:17;;;;;;;5.20;2.75;;;11.20;99.90;;;;;;5057084;28;20184;-72
2022/03/19 09:19:45;;;;;;;4.35;2.85;;;11.30;99.90;;;;;;5056979;28;20203;-74
2022/03/19 09:22:13;;;;;;;4.82;2.40;;;11.50;99.90;;;;;;5056355;28;20265;-72
2022/03/19 09:24:39;;;;;;;4.50;2.50;;;11.60;99.90;;;;;;5056946;28;20177;-72
2022/03/19 09:27:10;;;;;;;3.75;2.28;;;11.70;99.90;;;;;;5064571;28;20201;-71
2022/03/19 09:29:35;;;;;;;4.35;2.22;;;11.90;99.90;;;;;;5074291;28;20184;-72
2022/03/19 09:32:04;;;;;;;3.92;2.60;;;12.00;99.90;;;;;;5056907;28;20184;-72
2022/03/19 09:34:30;;;;;;;4.22;2.53;;;12.10;99.90;;;;;;5056734;28;20190;-74
2022/03/19 09:36:58;;;;;;;4.82;2.45;;;12.20;99.90;;;;;;5065903;28;20217;-73
2022/03/19 09:39:24;;;;;;;3.47;2.20;;;12.20;99.90;;;;;;5077757;28;20199;-73
2022/03/19 09:41:50;;;;;;;4.93;2.38;;;12.30;99.90;;;;;;5055257;28;20200;-73
2022/03/19 09:44:19;;;;;;;3.60;2.20;;;12.40;99.90;;;;;;5048141;28;20177;-73
2022/03/19 09:46:49;;;;;;;4.18;2.50;;;12.50;99.90;;;;;;5050951;28;20197;-74
2022/03/19 09:49:15;;;;;;;6.47;2.35;;;12.70;99.90;;;;;;5053275;28;20173;-73
2022/03/19 09:51:44;;;;;;;6.53;2.55;;;13.20;99.90;;;;;;5055824;28;20189;-73
2022/03/19 09:54:10;;;;;;;4.95;2.17;;;13.80;99.90;;;;;;5051041;28;20228;-74
2022/03/19 09:56:36;;;;;;;4.25;1.88;;;14.50;99.90;;;;;;5071603;28;20205;-81
2022/03/19 09:59:02;;;;;;;4.78;2.35;;;15.10;99.90;;;;;;5053617;28;20199;-84
2022/03/19 10:01:31;;;;;;;3.80;2.20;;;15.80;99.90;;;;;;5052452;28;20197;-84
2022/03/19 10:04:04;;;;;;;3.60;1.95;;;16.40;99.90;;;;;;5055082;28;20197;-84
2022/03/19 10:09:21;;;;;;;3.80;2.10;;;17.30;99.90;;;;;;5056443;28;20259;-80
2022/03/19 10:11:49;;;;;;;5.55;2.60;;;17.70;96.80;;;;;;5060128;28;20236;-83
2022/03/19 10:14:22;;;;;;;4.25;1.92;;;18.00;94.40;;;;;;5053306;28;20200;-84
2022/03/19 10:16:51;;;;;;;3.40;2.40;;;18.10;92.80;;;;;;5038134;28;20251;-84
2022/03/19 10:19:17;;;;;;;4.63;2.20;;;18.30;88.70;;;;;;5049364;28;20208;-83
2022/03/19 10:21:44;;;;;;;1.92;1.55;;;18.30;90.60;;;;;;5050797;28;20182;-83
2022/03/19 10:24:28;;;;;;;3.47;1.95;;;18.40;87.60;;;;;;5052255;28;20216;-85
2022/03/19 10:26:54;;;;;;;3.25;1.80;;;18.50;77.80;;;;;;5049613;28;20169;-85
2022/03/19 10:29:28;;;;;;;4.00;1.90;;;18.60;77.00;;;;;;5048807;28;20338;-79
2022/03/19 10:31:59;;;;;;;2.28;1.63;;;18.60;79.50;;;;;;5050645;28;20248;-82
2022/03/19 10:34:25;;;;;;;3.70;2.30;;;18.60;75.30;;;;;;5054933;28;20205;-82
2022/03/19 10:36:54;;;;;;;3.85;1.80;;;18.70;76.70;;;;;;5055242;28;20231;-80
2022/03/19 10:39:30;;;;;;;4.43;2.00;;;18.80;74.70;;;;;;5054418;28;20207;-82
2022/03/19 10:41:58;;;;;;;3.10;1.80;;;18.80;68.90;;;;;;5051538;28;20184;-79
2022/03/19 10:44:28;;;;;;;5.10;1.92;;;18.90;73.50;;;;;;5041993;28;20240;-75
2022/03/19 10:47:02;;;;;;;2.35;1.80;;;18.90;72.00;;;;;;5039630;28;20197;-84
2022/03/19 10:49:29;;;;;;;2.75;1.90;;;19.00;71.70;;;;;;5053018;28;20177;-78
2022/03/19 10:51:57;;;;;;;2.40;1.63;;;19.00;72.80;;;;;;5052402;28;20180;-79
2022/03/19 10:54:29;;;;;;;2.70;1.90;;;19.10;73.20;;;;;;5050005;28;20200;-83
2022/03/19 10:56:57;;;;;;;4.40;2.00;;;19.10;63.50;;;;;;5057207;28;20193;-82
2022/03/19 10:59:27;;;;;;;2.90;1.70;;;19.10;70.00;;;;;;5046254;28;20194;-81
2022/03/19 11:01:57;;;;;;;4.40;2.17;;;19.20;73.10;;;;;;5044404;28;20327;-81
2022/03/19 11:04:24;;;;;;;4.43;2.28;;;19.20;65.50;;;;;;5061938;28;20222;-82
2022/03/19 11:06:55;;;;;;;3.75;2.30;;;19.20;64.60;;;;;;5072054;28;20177;-80
2022/03/19 11:09:26;;;;;;;3.17;1.98;;;19.20;61.90;;;;;;5054852;28;20200;-77
2022/03/19 11:11:59;;;;;;;3.45;2.08;;;19.10;63.40;;;;;;5046605;28;20236;-83
2022/03/19 11:14:30;;;;;;;2.67;1.50;;;19.10;64.40;;;;;;5052550;28;20444;-83
2022/03/19 11:17:24;;;;;;;3.70;1.90;;;19.10;64.50;;;;;;5038775;28;20283;-80
2022/03/19 11:19:55;;;;;;;3.92;2.05;;;19.10;69.40;;;;;;5055649;28;20198;-82
2022/03/19 11:22:21;;;;;;;3.42;2.05;;;19.20;63.10;;;;;;5067790;28;20162;-83
2022/03/19 11:25:10;;;;;;;2.85;1.80;;;19.20;66.50;;;;;;5046201;28;20181;-77
2022/03/19 11:27:41;;;;;;;3.78;1.48;;;19.20;62.20;;;;;;5045008;28;20196;-79
2022/03/19 11:30:14;;;;;;;3.28;1.90;;;19.20;66.00;;;;;;5044353;28;20207;-83
2022/03/19 11:33:03;;;;;;;2.95;1.70;;;19.20;63.80;;;;;;5053776;28;20205;-81
2022/03/19 11:35:32;;;;;;;4.53;1.77;;;19.20;60.20;;;;;;5042975;28;20212;-84
2022/03/19 11:38:10;;;;;;;2.53;1.50;;;19.10;62.00;;;;;;5074948;28;20185;-82
2022/03/19 11:40:42;;;;;;;2.97;1.48;;;19.10;61.60;;;;;;5054382;28;20172;-79
2022/03/19 11:43:09;;;;;;;3.30;1.52;;;19.10;68.00;;;;;;5050044;28;20200;-84
2022/03/19 11:45:53;;;;;;;3.88;2.58;;;19.10;58.10;;;;;;5074350;28;20205;-79
2022/03/19 11:48:34;;;;;;;2.83;1.65;;;19.10;58.30;;;;;;5050885;28;20166;-81
2022/03/19 11:51:17;;;;;;;3.20;1.80;;;19.10;54.40;;;;;;5033498;28;20170;-79
2022/03/19 11:53:52;;;;;;;2.55;1.20;;;19.00;48.30;;;;;;5067398;28;20216;-72
2022/03/19 11:56:19;;;;;;;3.03;1.30;;;19.00;46.30;;;;;;5062541;28;20259;-69
2022/03/19 11:58:46;;;;;;;3.08;1.60;;;19.00;53.20;;;;;;5051283;28;20197;-84
2022/03/19 12:01:12;;;;;;;1.88;1.30;;;18.90;53.60;;;;;;5054747;28;20434;-75
2022/03/19 12:04:10;;;;;;;1.98;1.23;;;18.90;53.60;;;;;;5046399;28;20185;-76
2022/03/19 12:06:38;;;;;;;1.92;1.00;;;19.00;51.80;;;;;;5040632;28;20187;-79
2022/03/19 12:09:04;;;;;;;1.40;1.20;;;19.10;55.90;;;;;;5040235;28;20256;-73
2022/03/19 12:11:33;;;;;;;4.47;1.20;;;19.20;56.70;;;;;;5051822;28;20207;-85
2022/03/19 12:14:09;;;;;;;2.10;1.20;;;19.30;53.10;;;;;;5052759;28;20227;-71
2022/03/19 12:16:41;;;;;;;1.90;1.10;;;19.30;53.90;;;;;;5053223;28;20236;-77
2022/03/19 12:19:08;;;;;;;2.22;1.10;;;19.40;53.20;;;;;;5047203;28;20264;-77
2022/03/19 12:21:41;;;;;;;1.92;0.95;;;19.40;54.80;;;;;;5053182;28;20205;-83
2022/03/19 12:24:11;;;;;;;1.77;0.90;;;19.50;53.90;;;;;;5063815;28;20193;-82
2022/03/19 12:26:49;;;;;;;2.70;1.10;;;19.60;54.50;;;;;;5048751;28;20178;-84
2022/03/19 12:29:17;;;;;;;1.88;1.00;;;19.60;51.90;;;;;;5052942;28;20177;-84
2022/03/19 12:31:45;;;;;;;1.35;0.90;;;19.60;50.50;;;;;;5052722;28;20204;-85
2022/03/19 12:34:14;;;;;;;3.85;0.90;;;19.60;50.80;;;;;;5053472;28;20197;-82
2022/03/19 12:36:40;;;;;;;2.35;1.30;;;19.60;51.20;;;;;;5056937;28;20173;-72
2022/03/19 12:39:08;;;;;;;3.28;1.80;;;19.60;51.70;;;;;;5072738;28;20192;-71
2022/03/19 12:41:36;;;;;;;3.10;1.40;;;19.60;53.30;;;;;;5055771;28;20181;-73
2022/03/19 12:44:10;;;;;;;1.60;1.15;;;19.60;53.90;;;;;;5081412;28;20497;-81
2022/03/19 12:46:42;;;;;;;2.75;1.38;;;19.70;49.90;;;;;;5089086;28;20172;-70
2022/03/19 12:49:16;;;;;;;2.53;1.13;;;19.80;50.40;;;;;;5069991;28;20205;-80
2022/03/19 12:51:46;;;;;;;2.13;1.20;;;19.80;52.30;;;;;;5053581;28;20263;-73
2022/03/19 12:54:19;;;;;;;1.58;0.93;;;19.80;51.10;;;;;;5054450;28;20194;-79
2022/03/19 12:56:45;;;;;;;2.35;1.10;;;19.90;48.80;;;;;;5056803;28;20556;-66
2022/03/19 12:59:22;;;;;;;2.35;1.08;;;19.90;50.70;;;;;;5053141;28;20190;-74
2022/03/19 13:01:49;;;;;;;2.42;1.05;;;19.90;48.10;;;;;;5050207;28;20256;-76
2022/03/19 13:04:25;;;;;;;2.47;1.10;;;19.90;48.00;;;;;;5053048;28;20229;-75
2022/03/19 13:06:52;;;;;;;1.23;0.90;;;19.90;46.50;;;;;;5047708;28;20275;-72
2022/03/19 13:09:34;;;;;;;2.75;0.90;;;19.90;47.20;;;;;;5077990;28;20194;-74
2022/03/19 13:12:07;;;;;;;1.30;0.80;;;19.80;43.40;;;;;;5068735;28;20272;-75
2022/03/19 13:14:35;;;;;;;1.13;0.70;;;19.80;45.90;;;;;;5059357;28;20184;-75
2022/03/19 13:17:01;;;;;;;1.42;0.70;;;19.90;47.20;;;;;;5059063;28;20221;-72